Time;durP1;ratioP1;P1;durP2;ratioP2;P2;SDS_P1;SDS_P2;PMS_P1;PMS_P2;Temp;Humidity;BMP_temperature;BMP_pressure;BME280_temperature;BME280_humidity;BME280_pressure;Samples;Min_cycle;Max_cycle;Signal;HPM_P1;HPM_P2
2022/07/19 07:59:15;;;;;;;10.25;5.35;;;;;;;26.17;42.18;101565.69;5299050;27;20924;-89
2022/07/19 08:01:47;;;;;;;8.82;4.45;;;;;;;26.16;40.71;101558.38;5280461;28;20033;-89
2022/07/19 08:04:18;;;;;;;9.88;4.97;;;;;;;26.40;41.20;101554.28;5280909;28;20063;-79
2022/07/19 08:06:49;;;;;;;9.15;4.30;;;;;;;26.32;40.39;101553.34;5281323;28;20032;-89
2022/07/19 08:09:21;;;;;;;8.52;4.28;;;;;;;26.43;40.47;101550.69;5284843;28;20021;-87
2022/07/19 08:11:52;;;;;;;11.05;4.35;;;;;;;26.54;40.13;101554.56;5287370;28;20100;-88
2022/07/19 08:14:23;;;;;;;10.90;4.47;;;;;;;26.63;39.43;101552.25;5283011;28;20017;-88
2022/07/19 08:16:55;;;;;;;11.15;4.65;;;;;;;26.73;39.66;101547.94;5281364;28;20032;-87
2022/07/19 08:19:26;;;;;;;11.88;4.22;;;;;;;26.84;39.85;101551.75;5281582;28;20033;-88
2022/07/19 08:21:57;;;;;;;8.85;4.32;;;;;;;27.00;38.98;101545.88;5284451;28;20177;-87
2022/07/19 08:24:28;;;;;;;9.32;4.57;;;;;;;27.16;38.15;101553.41;5276032;28;20025;-87
2022/07/19 08:27:00;;;;;;;11.02;4.20;;;;;;;27.26;38.60;101555.59;5282935;28;20503;-83
2022/07/19 08:29:31;;;;;;;17.42;5.07;;;;;;;27.24;38.31;101547.44;5277907;28;20030;-89
2022/07/19 08:32:03;;;;;;;10.15;3.85;;;;;;;27.32;37.33;101543.47;5283674;28;20036;-88
2022/07/19 08:34:34;;;;;;;9.93;4.40;;;;;;;27.45;38.61;101552.56;5287424;28;20024;-85
2022/07/19 08:37:06;;;;;;;10.20;4.63;;;;;;;27.59;39.22;101543.38;5281194;28;20025;-85
2022/07/19 08:39:37;;;;;;;5.65;4.07;;;;;;;27.70;37.54;101541.44;5282827;28;20119;-87
2022/07/19 08:42:09;;;;;;;11.43;4.43;;;;;;;27.72;37.71;101536.19;5278743;28;20167;-83
2022/07/19 08:44:42;;;;;;;9.43;4.60;;;;;;;27.84;38.01;101537.97;5279565;28;20116;-86
2022/07/19 08:47:14;;;;;;;14.32;4.32;;;;;;;27.87;37.95;101540.03;5279237;28;20075;-85
2022/07/19 08:49:46;;;;;;;9.70;5.15;;;;;;;28.13;37.75;101538.22;5285616;28;20021;-86
2022/07/19 08:52:19;;;;;;;13.23;7.28;;;;;;;28.14;37.32;101537.00;5277134;28;20053;-85
2022/07/19 08:54:50;;;;;;;7.95;3.97;;;;;;;28.41;37.28;101529.09;5277532;28;20033;-87
2022/07/19 09:00:12;;;;;;;11.20;4.40;;;;;;;28.43;36.58;101535.22;5279697;28;20032;-85
2022/07/19 09:02:58;;;;;;;13.45;6.45;;;;;;;28.59;36.62;101529.25;5279447;28;20029;-87
2022/07/19 09:05:31;;;;;;;10.43;4.25;;;;;;;28.71;37.01;101530.94;5277849;28;20040;-89
2022/07/19 09:08:11;;;;;;;8.40;4.47;;;;;;;28.82;37.12;101526.13;5278659;28;20025;-87
2022/07/19 09:11:14;;;;;;;6.30;4.63;;;;;;;28.97;35.72;101522.13;5256715;28;20032;-87
2022/07/19 09:13:39;;;;;;;12.60;5.20;;;;;;;29.17;36.29;101521.81;5266431;28;20064;-88
2022/07/19 09:16:11;;;;;;;7.68;4.43;;;;;;;29.16;36.08;101528.75;5266677;28;20476;-88
2022/07/19 09:18:42;;;;;;;11.50;4.30;;;;;;;29.18;36.67;101524.28;5267700;28;20108;-87
2022/07/19 09:21:13;;;;;;;11.35;5.20;;;;;;;29.23;36.26;101520.22;5264387;28;20078;-87
2022/07/19 09:23:45;;;;;;;10.80;4.72;;;;;;;29.40;35.49;101510.91;5266587;28;20028;-88
2022/07/19 09:26:16;;;;;;;9.50;4.60;;;;;;;29.48;35.03;101518.25;5270577;28;20151;-90
2022/07/19 09:28:47;;;;;;;12.63;5.20;;;;;;;29.45;34.82;101518.25;5266986;28;20021;-88
2022/07/19 09:31:18;;;;;;;8.80;4.32;;;;;;;29.61;34.74;101526.47;5266688;28;20032;-89
2022/07/19 09:33:52;;;;;;;7.38;4.00;;;;;;;29.81;33.86;101522.03;5265790;28;20158;-91
2022/07/19 09:36:24;;;;;;;4.50;3.63;;;;;;;29.88;33.11;101527.75;5265669;28;20385;-90
2022/07/19 09:38:56;;;;;;;6.97;3.92;;;;;;;29.77;33.32;101520.41;5265760;28;20043;-80
2022/07/19 09:41:27;;;;;;;4.40;3.95;;;;;;;29.80;33.83;101508.13;5263737;28;20388;-90
2022/07/19 09:44:03;;;;;;;6.07;4.55;;;;;;;29.95;33.86;101518.38;5264141;28;20447;-89
2022/07/19 09:46:36;;;;;;;8.15;4.60;;;;;;;29.86;34.08;101513.06;5264941;28;20025;-89
2022/07/19 09:49:11;;;;;;;7.50;4.18;;;;;;;29.85;34.77;101517.13;5259604;28;20044;-93
2022/07/19 09:51:46;;;;;;;7.45;4.45;;;;;;;30.04;34.80;101509.38;5265390;28;20021;-90
2022/07/19 09:54:19;;;;;;;6.15;3.97;;;;;;;30.38;32.25;101509.00;5274615;28;20032;-84
2022/07/19 09:56:52;;;;;;;7.07;4.88;;;;;;;30.41;33.16;101511.84;5262645;28;20127;-88
2022/07/19 09:59:25;;;;;;;8.82;4.30;;;;;;;30.48;32.23;101505.31;5264091;28;20044;-85
2022/07/19 10:01:56;;;;;;;6.68;4.25;;;;;;;30.43;31.61;101505.72;5261354;28;20390;-89
2022/07/19 10:04:28;;;;;;;7.95;4.25;;;;;;;30.46;31.24;101505.69;5262306;28;20020;-85
2022/07/19 10:07:00;;;;;;;9.73;3.80;;;;;;;30.74;31.00;101506.88;5260673;28;20036;-86
2022/07/19 10:09:31;;;;;;;7.05;4.60;;;;;;;30.82;30.95;101508.50;5262100;28;20080;-85
2022/07/19 10:12:03;;;;;;;8.10;4.45;;;;;;;30.67;30.13;101501.97;5261441;28;20033;-79
2022/07/19 10:14:35;;;;;;;8.10;4.55;;;;;;;30.68;30.31;101503.63;5264557;28;20074;-87
2022/07/19 10:17:12;;;;;;;7.70;4.68;;;;;;;30.79;30.03;101499.91;5266458;28;20033;-85
2022/07/19 10:19:48;;;;;;;6.57;4.03;;;;;;;31.21;29.80;101496.06;5268728;28;20032;-89
2022/07/19 10:22:24;;;;;;;7.13;3.70;;;;;;;31.00;30.45;101497.00;5274938;28;20087;-92
2022/07/19 10:24:58;;;;;;;8.80;4.38;;;;;;;31.07;30.34;101491.25;5267490;28;20461;-86
2022/07/19 10:27:29;;;;;;;4.45;3.83;;;;;;;31.09;29.82;101497.38;5263745;28;20431;-79
2022/07/19 10:30:12;;;;;;;5.37;3.77;;;;;;;31.09;30.46;101490.81;5264327;28;20106;-91
2022/07/19 10:32:46;;;;;;;9.15;4.93;;;;;;;31.40;29.39;101486.19;5256668;28;20387;-89
2022/07/19 10:35:27;;;;;;;7.70;4.40;;;;;;;31.31;29.40;101483.72;5267148;28;20033;-85
2022/07/19 10:38:02;;;;;;;6.53;3.50;;;;;;;31.44;29.07;101481.22;5265098;28;20064;-88
2022/07/19 10:40:43;;;;;;;4.63;3.22;;;;;;;31.54;29.62;101474.63;5263622;28;20032;-84
2022/07/19 10:43:18;;;;;;;7.82;3.50;;;;;;;31.53;29.78;101470.13;5265993;28;20056;-84
2022/07/19 10:45:56;;;;;;;6.97;3.92;;;;;;;31.46;29.10;101461.56;5276551;28;20027;-82
2022/07/19 10:48:48;;;;;;;5.95;4.38;;;;;;;31.65;28.55;101468.84;5267363;28;20512;-83
2022/07/19 10:51:36;;;;;;;9.38;4.53;;;;;;;31.74;28.18;101460.56;5268701;28;20029;-79
2022/07/19 10:54:10;;;;;;;5.25;3.95;;;;;;;31.87;27.73;101458.00;5258866;28;20021;-87
2022/07/19 10:56:57;;;;;;;6.18;3.65;;;;;;;31.84;27.98;101471.13;5270149;28;20387;-87
2022/07/19 10:59:40;;;;;;;7.18;3.45;;;;;;;31.88;27.42;101462.50;5266221;28;20041;-85
2022/07/19 11:02:22;;;;;;;19.02;4.63;;;;;;;32.12;27.24;101459.88;5255379;28;20025;-86
2022/07/19 11:04:54;;;;;;;19.45;5.60;;;;;;;32.15;27.62;101448.34;5261345;28;20037;-86
2022/07/19 11:07:25;;;;;;;6.50;3.40;;;;;;;32.24;27.41;101448.66;5262638;28;20468;-86
2022/07/19 11:09:58;;;;;;;7.13;4.50;;;;;;;32.22;27.63;101447.47;5264658;28;20088;-90
2022/07/19 11:12:36;;;;;;;7.32;4.25;;;;;;;32.48;27.30;101440.25;5263733;28;20025;-81
2022/07/19 11:15:09;;;;;;;4.30;3.53;;;;;;;32.46;26.81;101437.75;5262334;28;20476;-89
2022/07/19 11:17:52;;;;;;;7.85;3.63;;;;;;;32.53;27.09;101430.34;5265205;28;20035;-91
2022/07/19 11:20:25;;;;;;;7.55;3.53;;;;;;;32.96;26.26;101430.63;5279922;28;20533;-83
2022/07/19 11:22:58;;;;;;;12.40;4.15;;;;;;;32.92;26.35;101433.53;5266954;28;20021;-86
2022/07/19 11:25:32;;;;;;;10.80;4.55;;;;;;;32.93;26.33;101431.50;5266609;28;20067;-90
2022/07/19 11:28:03;;;;;;;13.40;5.13;;;;;;;33.04;27.01;101426.44;5265102;28;20056;-92
2022/07/19 11:30:35;;;;;;;9.10;3.22;;;;;;;33.31;26.42;101414.13;5264169;28;20369;-88
2022/07/19 11:33:06;;;;;;;9.38;5.10;;;;;;;33.28;26.81;101410.06;5273068;28;20024;-92
2022/07/19 11:35:38;;;;;;;4.55;3.28;;;;;;;33.22;27.16;101413.88;5271840;28;20001;-91
2022/07/19 11:38:09;;;;;;;5.72;3.55;;;;;;;33.54;26.76;101408.47;5263297;28;20032;-84
2022/07/19 11:40:40;;;;;;;8.45;3.53;;;;;;;33.44;26.55;101409.44;5270767;28;20155;-84
2022/07/19 11:43:12;;;;;;;14.27;12.52;;;;;;;33.60;25.56;101408.78;5261742;28;20037;-83
2022/07/19 11:45:49;;;;;;;9.00;6.13;;;;;;;33.63;24.71;101410.78;5262792;28;20464;-87
2022/07/19 11:48:25;;;;;;;6.68;3.08;;;;;;;33.58;24.22;101405.53;5263108;28;20036;-78
2022/07/19 11:50:58;;;;;;;4.53;3.05;;;;;;;33.61;24.24;101400.97;5263470;28;20043;-80
2022/07/19 11:53:30;;;;;;;5.93;3.10;;;;;;;33.71;23.68;101406.53;5262542;28;20025;-88
2022/07/19 11:56:03;;;;;;;7.05;3.78;;;;;;;33.87;24.70;101408.72;5261901;28;20039;-85
2022/07/19 11:58:34;;;;;;;4.75;3.25;;;;;;;33.87;24.43;101402.16;5261305;28;20128;-78
2022/07/19 12:01:06;;;;;;;3.80;3.25;;;;;;;34.08;24.32;101400.97;5253209;28;20025;-78
2022/07/19 12:03:37;;;;;;;8.68;3.50;;;;;;;34.04;23.88;101398.16;5261002;28;20033;-81
2022/07/19 12:06:09;;;;;;;5.28;3.22;;;;;;;33.99;23.87;101387.16;5261551;28;20021;-81
2022/07/19 12:08:44;;;;;;;4.57;3.00;;;;;;;34.33;23.98;101394.75;5261750;28;20025;-81
2022/07/19 12:11:27;;;;;;;7.47;3.33;;;;;;;34.24;24.56;101388.78;5261081;28;20473;-82
2022/07/19 12:13:58;;;;;;;6.03;4.35;;;;;;;34.16;24.71;101383.16;5262293;28;20029;-85
2022/07/19 12:16:30;;;;;;;6.95;3.80;;;;;;;34.56;23.85;101379.47;5262860;28;20052;-83
2022/07/19 12:19:01;;;;;;;7.43;3.70;;;;;;;34.36;24.32;101367.94;5262039;28;20033;-84
2022/07/19 12:21:34;;;;;;;7.32;4.13;;;;;;;34.38;24.62;101369.13;5277050;28;20098;-83
2022/07/19 12:24:20;;;;;;;5.13;4.03;;;;;;;34.63;23.59;101362.88;5266384;28;20108;-85
2022/07/19 12:26:51;;;;;;;5.72;3.85;;;;;;;34.63;22.73;101351.38;5263375;28;20107;-84
2022/07/19 12:29:36;;;;;;;5.27;3.10;;;;;;;34.73;22.35;101355.28;5263178;28;20526;-83
2022/07/19 12:32:08;;;;;;;;;;;;;;;34.80;22.25;101354.31;5274755;28;20044;-88
2022/07/19 12:35:00;;;;;;;3.60;2.80;;;;;;;35.04;21.57;101357.88;5265573;28;19980;-88
2022/07/19 12:38:03;;;;;;;3.60;2.50;;;;;;;35.15;21.11;101357.63;5267898;28;20388;-88
2022/07/19 12:40:35;;;;;;;6.78;3.00;;;;;;;35.03;20.93;101344.72;5266888;28;20161;-81
2022/07/19 12:43:11;;;;;;;4.80;3.17;;;;;;;35.39;20.47;101344.69;5269546;28;20025;-86
2022/07/19 12:45:46;;;;;;;5.25;2.80;;;;;;;35.35;20.99;101346.03;5264624;28;20104;-86
2022/07/19 12:48:17;;;;;;;;;;;;;;;35.40;21.71;101342.59;5266331;28;20036;-82
2022/07/19 12:50:49;;;;;;;6.68;2.95;;;;;;;35.42;20.59;101338.00;5257744;28;20283;-87
2022/07/19 12:53:21;;;;;;;7.28;3.88;;;;;;;35.46;21.16;101337.91;5264958;28;20032;-82
2022/07/19 12:55:52;;;;;;;6.97;3.35;;;;;;;35.54;21.01;101332.75;5259038;28;20025;-88
2022/07/19 13:01:16;;;;;;;5.00;3.05;;;;;;;35.65;21.15;101339.13;5241490;28;20074;-78
2022/07/19 13:03:48;;;;;;;5.13;2.55;;;;;;;35.91;20.82;101329.31;5269509;28;20028;-86
2022/07/19 13:06:19;;;;;;;9.27;3.45;;;;;;;35.78;20.80;101331.34;5285685;28;20446;-81
2022/07/19 13:08:50;;;;;;;7.63;3.13;;;;;;;35.90;20.58;101326.91;5267604;28;20029;-80
2022/07/19 13:11:26;;;;;;;8.77;3.03;;;;;;;35.93;21.30;101323.91;5265726;28;20029;-83
2022/07/19 13:13:58;;;;;;;6.72;3.67;;;;;;;35.86;20.65;101324.09;5264572;28;20151;-84
2022/07/19 13:16:29;;;;;;;6.20;3.20;;;;;;;36.14;19.88;101316.75;5264649;28;20458;-84
2022/07/19 13:19:01;;;;;;;6.57;3.40;;;;;;;36.11;21.03;101313.97;5263752;28;20036;-77
2022/07/19 13:21:32;;;;;;;5.88;3.33;;;;;;;36.19;21.39;101308.78;5262683;28;20025;-78
2022/07/19 13:24:04;;;;;;;6.53;3.17;;;;;;;36.40;20.89;101298.69;5264626;28;20033;-84
2022/07/19 13:26:36;;;;;;;16.00;4.85;;;;;;;36.37;21.96;101299.59;5264482;28;20096;-77
2022/07/19 13:29:07;;;;;;;7.25;3.40;;;;;;;36.40;20.99;101290.81;5263773;28;20396;-80
2022/07/19 13:31:39;;;;;;;4.47;3.28;;;;;;;36.61;21.19;101295.16;5265359;28;20080;-84
2022/07/19 13:34:11;;;;;;;5.32;3.67;;;;;;;36.41;21.05;101300.28;5266163;28;20029;-85
2022/07/19 13:36:43;;;;;;;6.50;4.63;;;;;;;36.47;21.71;101284.03;5267976;28;20431;-87
2022/07/19 13:39:15;;;;;;;9.00;4.13;;;;;;;36.73;21.23;101287.78;5266042;28;20033;-87
2022/07/19 13:41:49;;;;;;;7.68;3.90;;;;;;;36.64;21.26;101282.69;5264496;28;20060;-84
2022/07/19 13:44:20;;;;;;;6.38;4.55;;;;;;;36.70;21.58;101275.06;5264550;28;20028;-82
2022/07/19 13:46:53;;;;;;;5.80;3.65;;;;;;;36.73;21.22;101271.25;5262538;28;20370;-83
2022/07/19 13:49:24;;;;;;;7.35;3.85;;;;;;;36.78;21.01;101264.88;5266324;28;20099;-81
2022/07/19 13:51:56;;;;;;;7.57;3.88;;;;;;;36.91;20.76;101266.97;5264501;28;20105;-83
2022/07/19 13:54:27;;;;;;;5.97;3.83;;;;;;;36.89;20.25;101252.16;5267487;28;20037;-81
2022/07/19 13:56:58;;;;;;;4.40;3.60;;;;;;;36.94;20.22;101249.53;5265143;28;20017;-84
2022/07/19 13:59:31;;;;;;;7.13;4.38;;;;;;;37.09;20.20;101252.75;5260061;28;20052;-80
2022/07/19 14:02:03;;;;;;;9.40;4.63;;;;;;;37.18;20.01;101240.50;5263084;28;20025;-79
2022/07/19 14:04:34;;;;;;;9.82;4.20;;;;;;;37.13;20.29;101246.88;5263776;28;20074;-78
2022/07/19 14:07:05;;;;;;;6.60;3.50;;;;;;;37.40;20.11;101240.53;5264019;28;20109;-82
2022/07/19 14:09:37;;;;;;;6.80;3.67;;;;;;;37.26;19.91;101243.94;5263776;28;20024;-84
2022/07/19 14:12:08;;;;;;;7.15;3.70;;;;;;;37.41;19.18;101231.41;5263673;28;20057;-83
2022/07/19 14:14:39;;;;;;;7.20;4.82;;;;;;;37.56;18.80;101236.72;5272104;28;20029;-82
2022/07/19 14:17:11;;;;;;;7.95;3.42;;;;;;;37.30;18.41;101236.78;5262305;28;20427;-83
2022/07/19 14:19:42;;;;;;;6.43;3.60;;;;;;;37.36;18.77;101229.09;5263930;28;20433;-84
2022/07/19 14:22:15;;;;;;;7.80;4.22;;;;;;;37.41;19.07;101224.81;5273092;28;20535;-83
2022/07/19 14:24:46;;;;;;;7.53;3.53;;;;;;;37.51;17.84;101232.34;5261102;28;20104;-82
2022/07/19 14:27:17;;;;;;;4.47;3.13;;;;;;;37.46;18.17;101227.13;5264896;28;20123;-83
2022/07/19 14:29:49;;;;;;;8.43;3.30;;;;;;;37.71;17.92;101231.19;5264995;28;20028;-83
2022/07/19 14:32:20;;;;;;;6.50;3.77;;;;;;;37.72;18.45;101229.94;5262896;28;20287;-83
2022/07/19 14:34:51;;;;;;;5.10;3.47;;;;;;;37.73;17.89;101217.88;5264914;28;20292;-83
2022/07/19 14:37:22;;;;;;;6.75;3.22;;;;;;;37.95;18.14;101212.09;5257170;28;20034;-83
2022/07/19 14:39:54;;;;;;;5.80;3.33;;;;;;;37.78;17.85;101216.47;5263019;28;20029;-83
2022/07/19 14:42:28;;;;;;;5.15;3.75;;;;;;;37.89;18.54;101214.00;5264021;28;20384;-83
2022/07/19 14:45:00;;;;;;;5.55;3.00;;;;;;;37.80;18.71;101211.81;5263362;28;20049;-83
2022/07/19 14:47:32;;;;;;;9.55;3.50;;;;;;;37.84;18.33;101212.50;5265728;28;20033;-84
2022/07/19 14:50:07;;;;;;;6.18;3.53;;;;;;;37.84;18.01;101211.72;5264564;28;20029;-84
2022/07/19 14:52:39;;;;;;;6.10;3.25;;;;;;;37.79;18.07;101203.63;5269671;28;20052;-83
2022/07/19 14:55:11;;;;;;;8.65;3.00;;;;;;;37.69;18.60;101199.84;5262936;28;20499;-84
2022/07/19 14:57:42;;;;;;;7.22;3.80;;;;;;;37.83;17.77;101196.41;5263572;28;20136;-87
2022/07/19 15:00:14;;;;;;;6.00;3.33;;;;;;;37.89;17.40;101190.00;5262807;28;20063;-80
2022/07/19 15:02:46;;;;;;;6.60;3.20;;;;;;;37.79;17.67;101186.25;5262493;28;20530;-83
2022/07/19 15:05:17;;;;;;;5.35;3.08;;;;;;;37.73;17.92;101182.34;5263521;28;20021;-82
2022/07/19 15:07:48;;;;;;;4.18;3.00;;;;;;;37.81;16.98;101172.09;5261876;28;20456;-83
2022/07/19 15:10:20;;;;;;;6.63;3.10;;;;;;;37.64;17.87;101169.44;5261439;28;20504;-82
2022/07/19 15:12:51;;;;;;;7.07;4.07;;;;;;;37.49;17.65;101162.53;5261348;28;20029;-81
2022/07/19 15:15:23;;;;;;;5.28;2.85;;;;;;;37.49;18.05;101159.66;5264683;28;20025;-80
2022/07/19 15:17:54;;;;;;;8.07;3.80;;;;;;;37.41;17.50;101161.19;5264255;28;20048;-81
2022/07/19 15:20:26;;;;;;;6.23;3.43;;;;;;;37.55;17.59;101154.88;5262448;28;20021;-85
2022/07/19 15:22:57;;;;;;;7.95;3.30;;;;;;;37.39;17.58;101143.50;5261464;28;20348;-83
2022/07/19 15:25:28;;;;;;;5.43;3.50;;;;;;;37.52;17.63;101141.38;5263380;28;20056;-86
2022/07/19 15:28:00;;;;;;;5.93;3.75;;;;;;;37.34;18.34;101144.09;5262785;28;20048;-90
2022/07/19 15:30:31;;;;;;;7.18;3.35;;;;;;;37.42;17.84;101146.25;5275145;28;20021;-89
2022/07/19 15:33:03;;;;;;;14.52;3.67;;;;;;;37.41;17.37;101138.06;5264581;28;20151;-87
2022/07/19 15:35:35;;;;;;;4.60;2.80;;;;;;;37.33;16.83;101130.94;5254564;28;20078;-79
2022/07/19 15:38:06;;;;;;;5.53;2.88;;;;;;;37.19;17.83;101133.03;5261752;28;20043;-78
2022/07/19 15:40:38;;;;;;;9.43;6.15;;;;;;;37.33;17.40;101130.94;5261017;28;20043;-78
2022/07/19 15:43:09;;;;;;;7.15;3.63;;;;;;;37.41;17.04;101135.97;5260963;28;20400;-79
2022/07/19 15:45:42;;;;;;;8.05;2.90;;;;;;;37.19;17.00;101129.34;5262159;28;20029;-78
2022/07/19 15:48:13;;;;;;;7.88;3.13;;;;;;;37.19;17.16;101121.47;5261442;28;20033;-82
2022/07/19 15:50:45;;;;;;;7.50;3.50;;;;;;;37.25;16.93;101129.56;5275343;28;20033;-84
2022/07/19 15:53:17;;;;;;;7.63;3.45;;;;;;;37.12;16.79;101120.94;5263927;28;20104;-85
2022/07/19 15:55:48;;;;;;;6.85;3.58;;;;;;;37.16;17.54;101115.84;5262699;28;20127;-83
2022/07/19 15:58:21;;;;;;;8.18;3.78;;;;;;;37.21;16.74;101106.56;5263347;28;20126;-85
2022/07/19 16:00:53;;;;;;;6.13;3.33;;;;;;;37.17;17.08;101100.09;5262108;28;20392;-83
2022/07/19 16:03:24;;;;;;;7.97;4.13;;;;;;;37.20;17.32;101097.09;5262016;28;20033;-84
2022/07/19 16:05:55;;;;;;;8.23;3.45;;;;;;;37.09;16.64;101090.06;5264807;28;20036;-85
2022/07/19 16:08:27;;;;;;;7.53;5.18;;;;;;;36.95;17.93;101089.28;5262416;28;20480;-84
2022/07/19 16:10:58;;;;;;;11.25;4.30;;;;;;;36.99;17.07;101087.09;5256608;28;20021;-85
2022/07/19 16:13:29;;;;;;;8.63;3.90;;;;;;;37.08;17.05;101089.28;5261085;28;20029;-84
2022/07/19 16:16:01;;;;;;;6.63;4.30;;;;;;;37.19;17.31;101081.00;5261918;28;20394;-83
2022/07/19 16:18:32;;;;;;;9.05;4.13;;;;;;;37.33;16.85;101078.88;5262292;28;20095;-85
2022/07/19 16:21:04;;;;;;;9.27;3.95;;;;;;;37.06;16.84;101074.47;5266675;28;20025;-85
2022/07/19 16:23:35;;;;;;;5.75;3.20;;;;;;;36.94;17.54;101073.25;5263792;28;20059;-85
2022/07/19 16:26:07;;;;;;;4.07;3.20;;;;;;;36.86;17.11;101074.75;5266087;28;20029;-87
2022/07/19 16:28:38;;;;;;;6.65;3.75;;;;;;;36.96;16.97;101066.97;5265150;28;20078;-84
2022/07/19 16:31:09;;;;;;;7.35;3.40;;;;;;;36.90;16.66;101068.84;5273224;28;20099;-83
2022/07/19 16:33:41;;;;;;;8.10;3.15;;;;;;;36.98;16.51;101065.22;5268208;28;20094;-84
2022/07/19 16:36:12;;;;;;;8.88;3.60;;;;;;;37.02;16.41;101070.06;5267273;28;20472;-84
2022/07/19 16:38:43;;;;;;;6.63;3.35;;;;;;;37.02;16.47;101062.22;5266056;28;20033;-84
2022/07/19 16:41:15;;;;;;;6.97;3.78;;;;;;;36.98;16.60;101052.88;5267073;28;20131;-85
2022/07/19 16:43:46;;;;;;;12.05;6.88;;;;;;;37.07;16.20;101050.09;5267094;28;20469;-83
2022/07/19 16:46:18;;;;;;;7.35;3.58;;;;;;;37.15;16.80;101057.22;5265071;28;20025;-82
2022/07/19 16:48:50;;;;;;;8.73;3.28;;;;;;;37.19;16.72;101052.09;5273250;28;20031;-82
2022/07/19 16:51:21;;;;;;;5.32;3.13;;;;;;;37.27;15.97;101052.63;5257099;28;20028;-81
2022/07/19 16:53:52;;;;;;;4.63;3.15;;;;;;;37.23;16.03;101040.41;5264779;28;20032;-81
2022/07/19 16:56:23;;;;;;;6.60;3.57;;;;;;;37.25;15.38;101045.69;5264498;28;20029;-81
2022/07/19 16:58:55;;;;;;;6.10;3.22;;;;;;;37.31;15.23;101041.75;5256937;28;20333;-82
2022/07/19 17:01:27;;;;;;;8.95;8.05;;;;;;;37.27;15.18;101043.97;5264918;28;20404;-82
2022/07/19 17:03:58;;;;;;;6.80;3.15;;;;;;;37.31;15.29;101040.94;5264928;28;20484;-79
2022/07/19 17:06:29;;;;;;;11.63;5.20;;;;;;;37.20;15.76;101035.56;5267736;28;20107;-80
2022/07/19 17:09:03;;;;;;;12.98;4.10;;;;;;;37.25;15.18;101032.09;5265100;28;20135;-80
2022/07/19 17:11:35;;;;;;;7.90;3.15;;;;;;;37.28;15.13;101039.00;5264898;28;20376;-80
2022/07/19 17:14:06;;;;;;;4.57;3.08;;;;;;;37.34;15.07;101037.09;5263515;28;20037;-82
2022/07/19 17:16:41;;;;;;;7.03;2.97;;;;;;;37.32;15.00;101042.53;5263137;28;20056;-81
2022/07/19 17:19:13;;;;;;;4.80;2.95;;;;;;;37.28;14.71;101042.69;5260353;28;20056;-81
2022/07/19 17:21:44;;;;;;;6.80;2.65;;;;;;;37.24;15.28;101042.00;5262467;28;20507;-81
2022/07/19 17:24:16;;;;;;;7.90;3.07;;;;;;;37.19;15.14;101037.63;5263895;28;20028;-81
2022/07/19 17:26:48;;;;;;;6.05;2.83;;;;;;;37.12;14.79;101046.59;5262816;28;20275;-81
2022/07/19 17:29:19;;;;;;;4.65;2.78;;;;;;;37.05;15.46;101041.09;5264481;28;20033;-81
